Strona główna
METAR-TAF:

METAR-TAF

Lotnisko :

Chengdu, Chiny

Port lotniczy Chengdu-Shuangliu

Szerokość geograficzna: 30-40N, Długość geograficzna: 104-01E, wysokość: 508 m

Aktualna obserwacja pogody

Raport powstał 33 minut temu, godzina 05:00 UTC
Wiatr 2 kt z kierunków zmiennych
Temperatura 11°C
Wilgotność 66%
Ciśnienie 1018 hPa
Widzialność: 2500 m
Mało chmury na wysokości 5000 ft
zmętnienie

METAR: ZUUU 180500Z VRB01MPS 2500 HZ FEW050 11/05 Q1018 BECMG TL0600 3000

czas: 13:33 (05:33 UTC)

Prognoza

Raport powstał 9 godziny i 32 minut temu, godzina 20:01 UTC
Prognoza ważna od 18 godzina 00 UTC do 18 godzina 24 UTC
Wiatr 6 kt od południowo-południowy zachód
Widzialność: 1900 m
Rozproszone chmury na wysokości 5000 ft
zamglenie
Stopniowe zmiany
od 18 godzina 03 UTC do 18 godzina 04 UTC
Widzialność: 3500 m

TAF: ZUUU 172001Z 1800/1824 20003MPS 1900 BR SCT050 TX13/1807Z TN03/1823Z BECMG 1803/1804 3500

Obserwacja i prognoza pogody dla ponad 4000 lotnisk (raport METAR i TAF).

Dostępne stacje oznaczono żółtymi i czerwonymi punktami na mapie.

Najedź kursorem aby zobaczyć nazwę stacji.

Kliknij aby zobaczyć obserwacje i prognozy pogody.

Aby zmienić mapę: kliknij na zielony przycisk z czarnym krzyżykiem, aby powiększyć; na zielony przycisk z myślnikiem, aby pomniejszyć; na zielone strzałki, aby przejść do map sąsiednich.


METAR-TAF: